sensor_id;sensor_type;location;lat;lon;timestamp;temperature;humidity
9179;DHT22;71287;48.414;11.478;2023-07-29T00:00:07;18.50;99.90
9179;DHT22;71287;48.414;11.478;2023-07-29T00:02:34;18.50;99.90
9179;DHT22;71287;48.414;11.478;2023-07-29T00:05:01;18.50;99.90
9179;DHT22;71287;48.414;11.478;2023-07-29T00:07:28;18.50;99.90
9179;DHT22;71287;48.414;11.478;2023-07-29T00:09:55;18.50;99.90
9179;DHT22;71287;48.414;11.478;2023-07-29T00:12:23;18.40;99.90
9179;DHT22;71287;48.414;11.478;2023-07-29T00:14:50;18.40;99.90
9179;DHT22;71287;48.414;11.478;2023-07-29T00:17:16;18.40;99.90
9179;DHT22;71287;48.414;11.478;2023-07-29T00:19:45;18.30;99.90
9179;DHT22;71287;48.414;11.478;2023-07-29T00:22:12;18.30;99.90
9179;DHT22;71287;48.414;11.478;2023-07-29T00:24:39;18.30;99.90
9179;DHT22;71287;48.414;11.478;2023-07-29T00:27:06;18.20;99.90
9179;DHT22;71287;48.414;11.478;2023-07-29T00:29:34;18.10;99.90
9179;DHT22;71287;48.414;11.478;2023-07-29T00:32:01;18.10;99.90
9179;DHT22;71287;48.414;11.478;2023-07-29T00:34:28;18.00;99.90
9179;DHT22;71287;48.414;11.478;2023-07-29T00:36:56;18.00;99.90
9179;DHT22;71287;48.414;11.478;2023-07-29T00:39:23;18.00;99.90
9179;DHT22;71287;48.414;11.478;2023-07-29T00:41:49;17.90;99.90
9179;DHT22;71287;48.414;11.478;2023-07-29T00:44:16;17.90;99.90
9179;DHT22;71287;48.414;11.478;2023-07-29T00:46:46;17.90;99.90
9179;DHT22;71287;48.414;11.478;2023-07-29T00:49:13;17.90;99.90
9179;DHT22;71287;48.414;11.478;2023-07-29T00:51:40;17.80;99.90
9179;DHT22;71287;48.414;11.478;2023-07-29T00:54:07;17.80;99.90
9179;DHT22;71287;48.414;11.478;2023-07-29T00:56:33;17.80;99.90
9179;DHT22;71287;48.414;11.478;2023-07-29T00:59:01;17.80;99.90
9179;DHT22;71287;48.414;11.478;2023-07-29T01:01:28;17.70;99.90
9179;DHT22;71287;48.414;11.478;2023-07-29T01:03:57;17.70;99.90
9179;DHT22;71287;48.414;11.478;2023-07-29T01:06:29;17.70;99.90
9179;DHT22;71287;48.414;11.478;2023-07-29T01:09:01;17.70;99.90
9179;DHT22;71287;48.414;11.478;2023-07-29T01:11:35;17.70;99.90
9179;DHT22;71287;48.414;11.478;2023-07-29T01:14:13;17.60;99.90
9179;DHT22;71287;48.414;11.478;2023-07-29T01:16:43;17.60;99.90
9179;DHT22;71287;48.414;11.478;2023-07-29T01:19:42;17.50;99.90
9179;DHT22;71287;48.414;11.478;2023-07-29T01:22:10;17.50;99.90
9179;DHT22;71287;48.414;11.478;2023-07-29T01:24:38;17.50;99.90
9179;DHT22;71287;48.414;11.478;2023-07-29T01:27:05;17.40;99.90
9179;DHT22;71287;48.414;11.478;2023-07-29T01:29:32;17.40;99.90
9179;DHT22;71287;48.414;11.478;2023-07-29T01:32:04;17.40;99.90
9179;DHT22;71287;48.414;11.478;2023-07-29T01:34:35;17.30;99.90
9179;DHT22;71287;48.414;11.478;2023-07-29T01:37:09;17.30;99.90
9179;DHT22;71287;48.414;11.478;2023-07-29T01:39:41;17.30;99.90
9179;DHT22;71287;48.414;11.478;2023-07-29T01:42:09;17.30;99.90
9179;DHT22;71287;48.414;11.478;2023-07-29T01:44:37;17.20;99.90
9179;DHT22;71287;48.414;11.478;2023-07-29T01:47:03;17.20;99.90
9179;DHT22;71287;48.414;11.478;2023-07-29T01:49:30;17.20;99.90
9179;DHT22;71287;48.414;11.478;2023-07-29T01:51:57;17.20;99.90
9179;DHT22;71287;48.414;11.478;2023-07-29T01:54:24;17.20;99.90
9179;DHT22;71287;48.414;11.478;2023-07-29T01:56:52;17.10;99.90
9179;DHT22;71287;48.414;11.478;2023-07-29T01:59:19;17.10;99.90
9179;DHT22;71287;48.414;11.478;2023-07-29T02:01:46;17.10;99.90
9179;DHT22;71287;48.414;11.478;2023-07-29T02:04:13;17.10;99.90
9179;DHT22;71287;48.414;11.478;2023-07-29T02:06:39;17.10;99.90
9179;DHT22;71287;48.414;11.478;2023-07-29T02:09:06;17.00;99.90
9179;DHT22;71287;48.414;11.478;2023-07-29T02:11:33;17.00;99.90
9179;DHT22;71287;48.414;11.478;2023-07-29T02:14:01;17.00;99.90
9179;DHT22;71287;48.414;11.478;2023-07-29T02:16:28;17.00;99.90
9179;DHT22;71287;48.414;11.478;2023-07-29T02:18:55;17.00;99.90
9179;DHT22;71287;48.414;11.478;2023-07-29T02:21:22;17.00;99.90
9179;DHT22;71287;48.414;11.478;2023-07-29T02:23:49;16.90;99.90
9179;DHT22;71287;48.414;11.478;2023-07-29T02:26:17;17.00;99.90
9179;DHT22;71287;48.414;11.478;2023-07-29T02:28:44;16.90;99.90
9179;DHT22;71287;48.414;11.478;2023-07-29T02:31:15;16.90;99.90
9179;DHT22;71287;48.414;11.478;2023-07-29T02:33:42;16.90;99.90
9179;DHT22;71287;48.414;11.478;2023-07-29T02:36:11;16.80;99.90
9179;DHT22;71287;48.414;11.478;2023-07-29T02:38:37;16.80;99.90
9179;DHT22;71287;48.414;11.478;2023-07-29T02:41:04;16.80;99.90
9179;DHT22;71287;48.414;11.478;2023-07-29T02:43:31;16.80;99.90
9179;DHT22;71287;48.414;11.478;2023-07-29T02:45:58;16.80;99.90
9179;DHT22;71287;48.414;11.478;2023-07-29T02:48:27;16.80;99.90
9179;DHT22;71287;48.414;11.478;2023-07-29T02:50:54;16.80;99.90
9179;DHT22;71287;48.414;11.478;2023-07-29T02:53:22;16.70;99.90
9179;DHT22;71287;48.414;11.478;2023-07-29T02:55:49;16.70;99.90
9179;DHT22;71287;48.414;11.478;2023-07-29T02:58:15;16.70;99.90
9179;DHT22;71287;48.414;11.478;2023-07-29T03:00:42;16.70;99.90
9179;DHT22;71287;48.414;11.478;2023-07-29T03:03:09;16.70;99.90
9179;DHT22;71287;48.414;11.478;2023-07-29T03:05:37;16.70;99.90
9179;DHT22;71287;48.414;11.478;2023-07-29T03:08:04;16.70;99.90
9179;DHT22;71287;48.414;11.478;2023-07-29T03:10:31;16.70;99.90
9179;DHT22;71287;48.414;11.478;2023-07-29T03:12:58;16.60;99.90
9179;DHT22;71287;48.414;11.478;2023-07-29T03:15:25;16.60;99.90
9179;DHT22;71287;48.414;11.478;2023-07-29T03:17:52;16.60;99.90
9179;DHT22;71287;48.414;11.478;2023-07-29T03:20:19;16.60;99.90
9179;DHT22;71287;48.414;11.478;2023-07-29T03:22:47;16.60;99.90
9179;DHT22;71287;48.414;11.478;2023-07-29T03:25:14;16.60;99.90
9179;DHT22;71287;48.414;11.478;2023-07-29T03:27:41;16.60;99.90
9179;DHT22;71287;48.414;11.478;2023-07-29T03:30:08;16.60;99.90
9179;DHT22;71287;48.414;11.478;2023-07-29T03:32:37;16.60;99.90
9179;DHT22;71287;48.414;11.478;2023-07-29T03:35:05;16.60;99.90
9179;DHT22;71287;48.414;11.478;2023-07-29T03:37:31;16.50;99.90
9179;DHT22;71287;48.414;11.478;2023-07-29T03:40:00;16.50;99.90
9179;DHT22;71287;48.414;11.478;2023-07-29T03:42:26;16.50;99.90
9179;DHT22;71287;48.414;11.478;2023-07-29T03:44:53;16.50;99.90
9179;DHT22;71287;48.414;11.478;2023-07-29T03:47:20;16.50;99.90
9179;DHT22;71287;48.414;11.478;2023-07-29T03:49:46;16.50;99.90
9179;DHT22;71287;48.414;11.478;2023-07-29T03:52:13;16.50;99.90
9179;DHT22;71287;48.414;11.478;2023-07-29T03:54:40;16.50;99.90
9179;DHT22;71287;48.414;11.478;2023-07-29T03:57:08;16.60;99.90
9179;DHT22;71287;48.414;11.478;2023-07-29T03:59:35;16.60;99.90
9179;DHT22;71287;48.414;11.478;2023-07-29T04:02:02;16.60;99.90
9179;DHT22;71287;48.414;11.478;2023-07-29T04:04:28;16.60;99.90
9179;DHT22;71287;48.414;11.478;2023-07-29T04:06:55;16.70;99.90
9179;DHT22;71287;48.414;11.478;2023-07-29T04:09:22;16.70;99.90
9179;DHT22;71287;48.414;11.478;2023-07-29T04:11:49;16.70;99.90
9179;DHT22;71287;48.414;11.478;2023-07-29T04:14:18;16.80;99.90
9179;DHT22;71287;48.414;11.478;2023-07-29T04:16:45;16.80;99.90
9179;DHT22;71287;48.414;11.478;2023-07-29T04:19:12;16.80;99.90
9179;DHT22;71287;48.414;11.478;2023-07-29T04:21:38;16.80;99.90
9179;DHT22;71287;48.414;11.478;2023-07-29T04:24:05;16.80;99.90
9179;DHT22;71287;48.414;11.478;2023-07-29T04:26:32;16.80;99.90
9179;DHT22;71287;48.414;11.478;2023-07-29T04:28:58;16.80;99.90
9179;DHT22;71287;48.414;11.478;2023-07-29T04:31:27;16.80;99.90
9179;DHT22;71287;48.414;11.478;2023-07-29T04:33:53;16.90;99.90
9179;DHT22;71287;48.414;11.478;2023-07-29T04:36:20;16.90;99.90
9179;DHT22;71287;48.414;11.478;2023-07-29T04:38:47;16.80;99.90
9179;DHT22;71287;48.414;11.478;2023-07-29T04:41:13;16.90;99.90
9179;DHT22;71287;48.414;11.478;2023-07-29T04:43:40;16.90;99.90
9179;DHT22;71287;48.414;11.478;2023-07-29T04:46:07;16.90;99.90
9179;DHT22;71287;48.414;11.478;2023-07-29T04:48:36;16.90;99.90
9179;DHT22;71287;48.414;11.478;2023-07-29T04:51:03;17.00;99.90
9179;DHT22;71287;48.414;11.478;2023-07-29T04:53:29;17.10;99.90
9179;DHT22;71287;48.414;11.478;2023-07-29T04:55:56;17.20;99.90
9179;DHT22;71287;48.414;11.478;2023-07-29T04:58:23;17.20;99.90
9179;DHT22;71287;48.414;11.478;2023-07-29T05:00:49;17.30;99.90
9179;DHT22;71287;48.414;11.478;2023-07-29T05:03:16;17.40;99.90
9179;DHT22;71287;48.414;11.478;2023-07-29T05:05:44;17.50;99.90
9179;DHT22;71287;48.414;11.478;2023-07-29T05:08:11;17.70;99.90
9179;DHT22;71287;48.414;11.478;2023-07-29T05:10:38;18.20;99.90
9179;DHT22;71287;48.414;11.478;2023-07-29T05:13:05;19.30;99.90
9179;DHT22;71287;48.414;11.478;2023-07-29T05:15:31;20.70;99.90
9179;DHT22;71287;48.414;11.478;2023-07-29T05:17:58;21.90;99.90
9179;DHT22;71287;48.414;11.478;2023-07-29T05:20:25;23.10;99.90
9179;DHT22;71287;48.414;11.478;2023-07-29T05:22:53;24.20;99.90
9179;DHT22;71287;48.414;11.478;2023-07-29T05:25:20;24.90;99.90
9179;DHT22;71287;48.414;11.478;2023-07-29T05:27:46;25.50;99.90
9179;DHT22;71287;48.414;11.478;2023-07-29T05:30:13;25.80;99.90
9179;DHT22;71287;48.414;11.478;2023-07-29T05:32:40;25.90;99.90
9179;DHT22;71287;48.414;11.478;2023-07-29T05:35:07;25.90;99.90
9179;DHT22;71287;48.414;11.478;2023-07-29T05:37:34;26.10;99.90
9179;DHT22;71287;48.414;11.478;2023-07-29T05:40:02;26.80;99.90
9179;DHT22;71287;48.414;11.478;2023-07-29T05:42:29;27.50;99.90
9179;DHT22;71287;48.414;11.478;2023-07-29T05:44:56;27.30;99.90
9179;DHT22;71287;48.414;11.478;2023-07-29T05:47:23;26.90;99.90
9179;DHT22;71287;48.414;11.478;2023-07-29T05:49:50;26.60;99.90
9179;DHT22;71287;48.414;11.478;2023-07-29T05:52:17;26.30;99.90
9179;DHT22;71287;48.414;11.478;2023-07-29T05:54:44;26.00;99.90
9179;DHT22;71287;48.414;11.478;2023-07-29T05:57:12;25.60;99.90
9179;DHT22;71287;48.414;11.478;2023-07-29T05:59:39;25.20;99.90
9179;DHT22;71287;48.414;11.478;2023-07-29T06:02:06;24.90;99.90
9179;DHT22;71287;48.414;11.478;2023-07-29T06:04:33;24.60;99.90
9179;DHT22;71287;48.414;11.478;2023-07-29T06:06:59;24.30;99.90
9179;DHT22;71287;48.414;11.478;2023-07-29T06:09:26;24.10;99.90
9179;DHT22;71287;48.414;11.478;2023-07-29T06:11:53;24.30;99.90
9179;DHT22;71287;48.414;11.478;2023-07-29T06:14:21;25.10;99.90
9179;DHT22;71287;48.414;11.478;2023-07-29T06:16:48;26.30;99.90
9179;DHT22;71287;48.414;11.478;2023-07-29T06:19:14;26.60;99.90
9179;DHT22;71287;48.414;11.478;2023-07-29T06:21:42;26.40;99.90
9179;DHT22;71287;48.414;11.478;2023-07-29T06:24:08;26.20;99.90
9179;DHT22;71287;48.414;11.478;2023-07-29T06:26:35;26.10;99.90
9179;DHT22;71287;48.414;11.478;2023-07-29T06:29:02;26.10;99.90
9179;DHT22;71287;48.414;11.478;2023-07-29T06:31:30;26.10;99.90
9179;DHT22;71287;48.414;11.478;2023-07-29T06:33:58;25.80;99.90
9179;DHT22;71287;48.414;11.478;2023-07-29T06:36:25;25.60;99.90
9179;DHT22;71287;48.414;11.478;2023-07-29T06:38:51;25.40;99.90
9179;DHT22;71287;48.414;11.478;2023-07-29T06:41:18;25.40;99.90
9179;DHT22;71287;48.414;11.478;2023-07-29T06:43:45;25.50;99.90
9179;DHT22;71287;48.414;11.478;2023-07-29T06:46:12;25.40;99.90
9179;DHT22;71287;48.414;11.478;2023-07-29T06:48:40;25.10;99.90
9179;DHT22;71287;48.414;11.478;2023-07-29T06:51:07;24.80;99.90
9179;DHT22;71287;48.414;11.478;2023-07-29T06:53:34;24.50;99.90
9179;DHT22;71287;48.414;11.478;2023-07-29T06:56:00;24.20;99.90
9179;DHT22;71287;48.414;11.478;2023-07-29T06:58:27;23.90;99.90
9179;DHT22;71287;48.414;11.478;2023-07-29T07:00:54;23.50;99.90
9179;DHT22;71287;48.414;11.478;2023-07-29T07:03:21;23.10;99.90
9179;DHT22;71287;48.414;11.478;2023-07-29T07:05:49;22.80;99.90
9179;DHT22;71287;48.414;11.478;2023-07-29T07:08:16;22.60;99.90
9179;DHT22;71287;48.414;11.478;2023-07-29T07:10:43;22.30;99.90
9179;DHT22;71287;48.414;11.478;2023-07-29T07:13:09;22.20;99.90
9179;DHT22;71287;48.414;11.478;2023-07-29T07:15:36;22.00;99.90
9179;DHT22;71287;48.414;11.478;2023-07-29T07:18:03;21.90;99.90
9179;DHT22;71287;48.414;11.478;2023-07-29T07:20:30;21.90;99.90
9179;DHT22;71287;48.414;11.478;2023-07-29T07:22:58;21.70;99.90
9179;DHT22;71287;48.414;11.478;2023-07-29T07:25:25;21.50;99.90
9179;DHT22;71287;48.414;11.478;2023-07-29T07:27:52;21.30;99.90
9179;DHT22;71287;48.414;11.478;2023-07-29T07:30:18;21.20;99.90
9179;DHT22;71287;48.414;11.478;2023-07-29T07:32:45;21.10;99.90
9179;DHT22;71287;48.414;11.478;2023-07-29T07:35:12;21.00;99.90
9179;DHT22;71287;48.414;11.478;2023-07-29T07:37:39;21.00;99.90
9179;DHT22;71287;48.414;11.478;2023-07-29T07:40:08;21.00;99.90
9179;DHT22;71287;48.414;11.478;2023-07-29T07:42:34;21.10;99.90
9179;DHT22;71287;48.414;11.478;2023-07-29T07:45:01;21.20;99.90
9179;DHT22;71287;48.414;11.478;2023-07-29T07:47:28;21.40;99.90
9179;DHT22;71287;48.414;11.478;2023-07-29T07:49:55;21.50;99.90
9179;DHT22;71287;48.414;11.478;2023-07-29T07:52:22;21.70;99.90
9179;DHT22;71287;48.414;11.478;2023-07-29T07:54:51;21.90;99.90
9179;DHT22;71287;48.414;11.478;2023-07-29T07:57:21;22.10;99.90
9179;DHT22;71287;48.414;11.478;2023-07-29T07:59:47;22.30;99.90
9179;DHT22;71287;48.414;11.478;2023-07-29T08:02:14;22.50;99.90
9179;DHT22;71287;48.414;11.478;2023-07-29T08:04:41;22.60;99.90
9179;DHT22;71287;48.414;11.478;2023-07-29T08:07:08;22.70;99.90
9179;DHT22;71287;48.414;11.478;2023-07-29T08:09:34;22.70;99.90
9179;DHT22;71287;48.414;11.478;2023-07-29T08:12:01;22.70;99.90
9179;DHT22;71287;48.414;11.478;2023-07-29T08:14:29;22.90;99.90
9179;DHT22;71287;48.414;11.478;2023-07-29T08:16:56;22.90;99.90
9179;DHT22;71287;48.414;11.478;2023-07-29T08:19:23;23.20;99.90
9179;DHT22;71287;48.414;11.478;2023-07-29T08:21:50;23.30;99.90
9179;DHT22;71287;48.414;11.478;2023-07-29T08:24:16;23.40;99.90
9179;DHT22;71287;48.414;11.478;2023-07-29T08:26:43;23.50;99.90
9179;DHT22;71287;48.414;11.478;2023-07-29T08:29:10;23.60;99.90
9179;DHT22;71287;48.414;11.478;2023-07-29T08:31:39;24.10;99.90
9179;DHT22;71287;48.414;11.478;2023-07-29T08:34:05;24.20;99.90
9179;DHT22;71287;48.414;11.478;2023-07-29T08:36:32;24.10;99.90
9179;DHT22;71287;48.414;11.478;2023-07-29T08:38:59;24.00;99.90
9179;DHT22;71287;48.414;11.478;2023-07-29T08:41:31;23.90;99.90
9179;DHT22;71287;48.414;11.478;2023-07-29T08:44:03;23.80;99.90
9179;DHT22;71287;48.414;11.478;2023-07-29T08:46:33;23.80;99.90
9179;DHT22;71287;48.414;11.478;2023-07-29T08:49:01;23.90;99.90
9179;DHT22;71287;48.414;11.478;2023-07-29T08:51:29;24.10;99.90
9179;DHT22;71287;48.414;11.478;2023-07-29T08:53:58;24.20;99.90
9179;DHT22;71287;48.414;11.478;2023-07-29T08:56:25;24.30;99.90
9179;DHT22;71287;48.414;11.478;2023-07-29T08:58:53;24.30;99.90
9179;DHT22;71287;48.414;11.478;2023-07-29T09:01:21;24.40;99.90
9179;DHT22;71287;48.414;11.478;2023-07-29T09:03:47;24.50;99.90
9179;DHT22;71287;48.414;11.478;2023-07-29T09:06:16;24.70;99.90
9179;DHT22;71287;48.414;11.478;2023-07-29T09:08:44;25.20;99.90
9179;DHT22;71287;48.414;11.478;2023-07-29T09:11:13;25.60;99.90
9179;DHT22;71287;48.414;11.478;2023-07-29T09:13:41;26.10;99.90
9179;DHT22;71287;48.414;11.478;2023-07-29T09:16:09;26.50;99.90
9179;DHT22;71287;48.414;11.478;2023-07-29T09:18:35;26.90;99.90
9179;DHT22;71287;48.414;11.478;2023-07-29T09:21:03;27.30;99.90
9179;DHT22;71287;48.414;11.478;2023-07-29T09:23:40;27.50;99.90
9179;DHT22;71287;48.414;11.478;2023-07-29T09:26:07;27.70;99.90
9179;DHT22;71287;48.414;11.478;2023-07-29T09:28:35;27.70;99.90
9179;DHT22;71287;48.414;11.478;2023-07-29T09:31:02;28.00;99.90
9179;DHT22;71287;48.414;11.478;2023-07-29T09:33:29;28.30;99.90
9179;DHT22;71287;48.414;11.478;2023-07-29T09:35:57;28.40;99.90
9179;DHT22;71287;48.414;11.478;2023-07-29T09:38:26;28.40;99.70
9179;DHT22;71287;48.414;11.478;2023-07-29T09:40:57;28.40;99.70
9179;DHT22;71287;48.414;11.478;2023-07-29T09:43:26;28.60;99.90
9179;DHT22;71287;48.414;11.478;2023-07-29T09:45:55;28.80;99.60
9179;DHT22;71287;48.414;11.478;2023-07-29T09:48:22;28.90;98.30
9179;DHT22;71287;48.414;11.478;2023-07-29T09:50:49;29.10;97.90
9179;DHT22;71287;48.414;11.478;2023-07-29T09:53:17;29.40;97.50
9179;DHT22;71287;48.414;11.478;2023-07-29T09:55:46;29.60;96.90
9179;DHT22;71287;48.414;11.478;2023-07-29T09:58:19;29.70;96.30
9179;DHT22;71287;48.414;11.478;2023-07-29T10:00:52;29.70;95.70
9179;DHT22;71287;48.414;11.478;2023-07-29T10:03:21;29.70;95.60
9179;DHT22;71287;48.414;11.478;2023-07-29T10:05:48;29.70;96.00
9179;DHT22;71287;48.414;11.478;2023-07-29T10:08:16;29.70;95.20
9179;DHT22;71287;48.414;11.478;2023-07-29T10:10:44;29.90;95.20
9179;DHT22;71287;48.414;11.478;2023-07-29T10:13:12;30.20;95.20
9179;DHT22;71287;48.414;11.478;2023-07-29T10:15:41;30.40;94.70
9179;DHT22;71287;48.414;11.478;2023-07-29T10:18:08;30.40;94.70
9179;DHT22;71287;48.414;11.478;2023-07-29T10:20:35;30.40;93.30
9179;DHT22;71287;48.414;11.478;2023-07-29T10:23:06;30.20;93.30
9179;DHT22;71287;48.414;11.478;2023-07-29T10:25:38;29.90;93.10
9179;DHT22;71287;48.414;11.478;2023-07-29T10:28:08;29.60;93.30
9179;DHT22;71287;48.414;11.478;2023-07-29T10:30:34;29.00;93.80
9179;DHT22;71287;48.414;11.478;2023-07-29T10:33:04;28.20;93.50
9179;DHT22;71287;48.414;11.478;2023-07-29T10:35:32;27.30;94.30
9179;DHT22;71287;48.414;11.478;2023-07-29T10:38:00;26.40;95.20
9179;DHT22;71287;48.414;11.478;2023-07-29T10:40:43;25.70;96.90
9179;DHT22;71287;48.414;11.478;2023-07-29T10:43:12;25.10;97.90
9179;DHT22;71287;48.414;11.478;2023-07-29T10:45:41;24.70;98.90
9179;DHT22;71287;48.414;11.478;2023-07-29T10:48:12;24.40;99.60
9179;DHT22;71287;48.414;11.478;2023-07-29T10:50:39;24.20;99.90
9179;DHT22;71287;48.414;11.478;2023-07-29T10:53:06;23.90;99.90
9179;DHT22;71287;48.414;11.478;2023-07-29T10:55:34;23.60;99.90
9179;DHT22;71287;48.414;11.478;2023-07-29T10:58:12;23.50;99.90
9179;DHT22;71287;48.414;11.478;2023-07-29T11:00:39;23.30;99.90
9179;DHT22;71287;48.414;11.478;2023-07-29T11:03:08;23.10;99.90
9179;DHT22;71287;48.414;11.478;2023-07-29T11:05:47;23.00;99.90
9179;DHT22;71287;48.414;11.478;2023-07-29T11:08:18;22.80;99.90
9179;DHT22;71287;48.414;11.478;2023-07-29T11:10:58;22.70;99.90
9179;DHT22;71287;48.414;11.478;2023-07-29T11:13:26;22.70;99.90
9179;DHT22;71287;48.414;11.478;2023-07-29T11:15:54;22.80;99.90
9179;DHT22;71287;48.414;11.478;2023-07-29T11:18:26;23.00;99.90
9179;DHT22;71287;48.414;11.478;2023-07-29T11:20:55;23.30;99.90
9179;DHT22;71287;48.414;11.478;2023-07-29T11:23:28;23.50;99.90
9179;DHT22;71287;48.414;11.478;2023-07-29T11:25:55;23.70;99.90
9179;DHT22;71287;48.414;11.478;2023-07-29T11:28:23;23.80;99.90
9179;DHT22;71287;48.414;11.478;2023-07-29T11:30:51;23.90;99.90
9179;DHT22;71287;48.414;11.478;2023-07-29T11:33:19;24.00;99.90
9179;DHT22;71287;48.414;11.478;2023-07-29T11:35:46;24.10;99.90
9179;DHT22;71287;48.414;11.478;2023-07-29T11:38:16;24.30;99.90
9179;DHT22;71287;48.414;11.478;2023-07-29T11:40:44;24.60;99.90
9179;DHT22;71287;48.414;11.478;2023-07-29T11:43:19;25.00;99.90
9179;DHT22;71287;48.414;11.478;2023-07-29T11:45:46;25.40;99.90
9179;DHT22;71287;48.414;11.478;2023-07-29T11:48:13;25.70;99.90
9179;DHT22;71287;48.414;11.478;2023-07-29T11:50:40;25.90;99.90
9179;DHT22;71287;48.414;11.478;2023-07-29T11:53:07;26.00;99.90
9179;DHT22;71287;48.414;11.478;2023-07-29T11:55:35;26.10;99.90
9179;DHT22;71287;48.414;11.478;2023-07-29T11:58:02;26.20;99.90
9179;DHT22;71287;48.414;11.478;2023-07-29T12:00:29;26.30;99.90
9179;DHT22;71287;48.414;11.478;2023-07-29T12:02:56;26.30;99.90
9179;DHT22;71287;48.414;11.478;2023-07-29T12:05:24;26.30;99.90
9179;DHT22;71287;48.414;11.478;2023-07-29T12:07:51;26.20;99.90
9179;DHT22;71287;48.414;11.478;2023-07-29T12:10:18;26.10;99.90
9179;DHT22;71287;48.414;11.478;2023-07-29T12:12:49;26.00;99.90
9179;DHT22;71287;48.414;11.478;2023-07-29T12:15:23;26.10;99.90
9179;DHT22;71287;48.414;11.478;2023-07-29T12:17:53;26.20;99.90
9179;DHT22;71287;48.414;11.478;2023-07-29T12:20:21;26.40;99.90
9179;DHT22;71287;48.414;11.478;2023-07-29T12:22:52;26.50;99.90
9179;DHT22;71287;48.414;11.478;2023-07-29T12:25:19;26.60;99.90
9179;DHT22;71287;48.414;11.478;2023-07-29T12:27:48;26.70;99.90
9179;DHT22;71287;48.414;11.478;2023-07-29T12:30:14;26.80;99.90
9179;DHT22;71287;48.414;11.478;2023-07-29T12:32:46;26.70;99.90
9179;DHT22;71287;48.414;11.478;2023-07-29T12:35:13;26.60;99.90
9179;DHT22;71287;48.414;11.478;2023-07-29T12:37:40;26.50;99.90
9179;DHT22;71287;48.414;11.478;2023-07-29T12:40:20;26.60;99.90
9179;DHT22;71287;48.414;11.478;2023-07-29T12:42:48;26.70;99.90
9179;DHT22;71287;48.414;11.478;2023-07-29T12:45:15;26.70;99.90
9179;DHT22;71287;48.414;11.478;2023-07-29T12:47:42;26.80;99.90
9179;DHT22;71287;48.414;11.478;2023-07-29T12:50:10;26.80;99.90
9179;DHT22;71287;48.414;11.478;2023-07-29T12:52:37;27.00;99.90
9179;DHT22;71287;48.414;11.478;2023-07-29T12:55:04;27.10;99.90
9179;DHT22;71287;48.414;11.478;2023-07-29T12:57:31;27.00;99.90
9179;DHT22;71287;48.414;11.478;2023-07-29T12:59:59;27.20;99.90
9179;DHT22;71287;48.414;11.478;2023-07-29T13:02:26;27.40;99.90
9179;DHT22;71287;48.414;11.478;2023-07-29T13:04:53;27.30;99.90
9179;DHT22;71287;48.414;11.478;2023-07-29T13:07:19;27.30;99.90
9179;DHT22;71287;48.414;11.478;2023-07-29T13:09:46;27.30;99.90
9179;DHT22;71287;48.414;11.478;2023-07-29T13:12:13;27.30;99.90
9179;DHT22;71287;48.414;11.478;2023-07-29T13:14:40;27.40;99.90
9179;DHT22;71287;48.414;11.478;2023-07-29T13:17:08;27.40;99.90
9179;DHT22;71287;48.414;11.478;2023-07-29T13:19:35;27.50;99.90
9179;DHT22;71287;48.414;11.478;2023-07-29T13:22:01;27.50;99.90
9179;DHT22;71287;48.414;11.478;2023-07-29T13:24:28;27.40;99.90
9179;DHT22;71287;48.414;11.478;2023-07-29T13:26:55;27.30;99.90
9179;DHT22;71287;48.414;11.478;2023-07-29T13:29:22;27.20;99.90
9179;DHT22;71287;48.414;11.478;2023-07-29T13:31:49;27.20;99.90
9179;DHT22;71287;48.414;11.478;2023-07-29T13:34:17;27.30;99.90
9179;DHT22;71287;48.414;11.478;2023-07-29T13:36:43;27.40;99.90
9179;DHT22;71287;48.414;11.478;2023-07-29T13:39:10;27.70;99.90
9179;DHT22;71287;48.414;11.478;2023-07-29T13:41:37;28.00;99.90
9179;DHT22;71287;48.414;11.478;2023-07-29T13:44:04;28.10;99.90
9179;DHT22;71287;48.414;11.478;2023-07-29T13:46:31;28.10;99.90
9179;DHT22;71287;48.414;11.478;2023-07-29T13:48:57;28.10;99.90
9179;DHT22;71287;48.414;11.478;2023-07-29T13:51:25;28.10;99.90
9179;DHT22;71287;48.414;11.478;2023-07-29T13:53:52;28.10;99.20
9179;DHT22;71287;48.414;11.478;2023-07-29T13:56:19;28.10;98.90
9179;DHT22;71287;48.414;11.478;2023-07-29T13:58:46;28.00;98.80
9179;DHT22;71287;48.414;11.478;2023-07-29T14:01:13;28.00;98.70
9179;DHT22;71287;48.414;11.478;2023-07-29T14:03:40;27.80;99.20
9179;DHT22;71287;48.414;11.478;2023-07-29T14:06:06;27.60;98.70
9179;DHT22;71287;48.414;11.478;2023-07-29T14:08:34;27.40;98.30
9179;DHT22;71287;48.414;11.478;2023-07-29T14:11:01;27.10;98.20
9179;DHT22;71287;48.414;11.478;2023-07-29T14:13:28;26.90;98.20
9179;DHT22;71287;48.414;11.478;2023-07-29T14:15:55;26.80;98.50
9179;DHT22;71287;48.414;11.478;2023-07-29T14:18:22;26.80;99.20
9179;DHT22;71287;48.414;11.478;2023-07-29T14:20:48;26.70;99.00
9179;DHT22;71287;48.414;11.478;2023-07-29T14:23:16;26.70;99.20
9179;DHT22;71287;48.414;11.478;2023-07-29T14:25:45;26.50;99.10
9179;DHT22;71287;48.414;11.478;2023-07-29T14:28:13;26.50;99.30
9179;DHT22;71287;48.414;11.478;2023-07-29T14:30:40;26.50;99.60
9179;DHT22;71287;48.414;11.478;2023-07-29T14:33:07;26.60;99.90
9179;DHT22;71287;48.414;11.478;2023-07-29T14:35:34;26.70;99.80
9179;DHT22;71287;48.414;11.478;2023-07-29T14:38:01;26.70;99.70
9179;DHT22;71287;48.414;11.478;2023-07-29T14:40:27;26.80;99.90
9179;DHT22;71287;48.414;11.478;2023-07-29T14:42:55;26.80;99.70
9179;DHT22;71287;48.414;11.478;2023-07-29T14:45:22;26.60;99.90
9179;DHT22;71287;48.414;11.478;2023-07-29T14:47:49;26.50;99.90
9179;DHT22;71287;48.414;11.478;2023-07-29T14:50:16;26.30;99.90
9179;DHT22;71287;48.414;11.478;2023-07-29T14:52:42;26.10;99.90
9179;DHT22;71287;48.414;11.478;2023-07-29T14:55:09;25.80;99.90
9179;DHT22;71287;48.414;11.478;2023-07-29T14:57:36;25.50;99.90
9179;DHT22;71287;48.414;11.478;2023-07-29T15:00:05;25.30;99.90
9179;DHT22;71287;48.414;11.478;2023-07-29T15:02:32;25.20;99.90
9179;DHT22;71287;48.414;11.478;2023-07-29T15:04:59;25.00;99.90
9179;DHT22;71287;48.414;11.478;2023-07-29T15:07:26;24.90;99.90
9179;DHT22;71287;48.414;11.478;2023-07-29T15:09:53;24.90;99.90
9179;DHT22;71287;48.414;11.478;2023-07-29T15:12:20;24.80;99.90
9179;DHT22;71287;48.414;11.478;2023-07-29T15:14:46;24.50;99.90
9179;DHT22;71287;48.414;11.478;2023-07-29T15:17:15;23.40;99.90
9179;DHT22;71287;48.414;11.478;2023-07-29T15:19:42;22.60;99.90
9179;DHT22;71287;48.414;11.478;2023-07-29T15:22:08;22.00;99.90
9179;DHT22;71287;48.414;11.478;2023-07-29T15:24:35;21.60;99.90
9179;DHT22;71287;48.414;11.478;2023-07-29T15:27:04;21.10;99.90
9179;DHT22;71287;48.414;11.478;2023-07-29T15:29:31;20.60;99.90
9179;DHT22;71287;48.414;11.478;2023-07-29T15:31:58;20.40;99.90